Time;durP1;ratioP1;P1;durP2;ratioP2;P2;SDS_P1;SDS_P2;PMS_P1;PMS_P2;Temp;Humidity;BMP_temperature;BMP_pressure;BME280_temperature;BME280_humidity;BME280_pressure;Samples;Min_cycle;Max_cycle;Signal;HPM_P1;HPM_P2
2022/01/24 00:02:45;;;;;;;13.63;6.90;;;2.20;99.90;;;;;;11027890;24;20253;-79
2022/01/24 00:08:11;;;;;;;11.00;6.30;;;2.20;99.90;;;;;;10034607;29;20245;-79
2022/01/24 00:30:23;;;;;;;11.27;5.73;;;2.10;99.90;;;;;;10029291;29;20225;-79
2022/01/24 00:35:50;;;;;;;5.97;3.93;;;2.10;99.90;;;;;;10018381;29;20210;-79
2022/01/24 00:41:18;;;;;;;10.47;4.27;;;2.10;99.90;;;;;;10032231;29;20211;-78
2022/01/24 00:46:50;;;;;;;9.23;5.30;;;2.10;99.90;;;;;;10031887;29;20283;-79
2022/01/24 00:57:57;;;;;;;7.27;4.10;;;2.10;99.90;;;;;;10045000;29;20379;-79
2022/01/24 01:03:24;;;;;;;8.03;4.50;;;2.10;99.90;;;;;;10027919;29;20329;-79
2022/01/24 01:20:24;;;;;;;11.90;6.13;;;2.10;99.90;;;;;;10030506;29;20230;-79
2022/01/24 01:25:51;;;;;;;8.57;5.40;;;2.10;99.90;;;;;;10014393;29;20216;-79
2022/01/24 01:31:30;;;;;;;7.33;5.03;;;2.20;99.90;;;;;;10027256;29;20442;-80
2022/01/24 02:00:56;;;;;;;15.73;9.07;;;2.10;99.90;;;;;;11073213;24;20463;-80
2022/01/24 02:06:23;;;;;;;7.93;5.37;;;2.10;99.90;;;;;;10026260;29;20211;-79
2022/01/24 02:18:15;;;;;;;9.40;5.57;;;2.20;99.90;;;;;;10445444;24;20226;-79
2022/01/24 02:23:44;;;;;;;9.27;6.13;;;2.10;99.90;;;;;;10907845;24;20258;-79
2022/01/24 02:34:53;;;;;;;40.23;13.13;;;2.20;99.90;;;;;;10042158;29;20240;-80
2022/01/24 02:52:18;;;;;;;7.27;4.87;;;2.20;99.90;;;;;;9898361;30;20207;-79
2022/01/24 02:57:43;;;;;;;10.87;4.90;;;2.20;99.90;;;;;;9883459;30;20297;-78
2022/01/24 03:03:08;;;;;;;8.70;6.00;;;2.20;99.90;;;;;;9897676;30;20202;-79
2022/01/24 03:08:37;;;;;;;10.27;6.47;;;2.10;99.90;;;;;;9900046;30;20190;-79
2022/01/24 03:14:02;;;;;;;12.43;7.37;;;2.10;99.90;;;;;;9886566;30;20210;-79
2022/01/24 03:19:28;;;;;;;20.07;9.33;;;2.10;99.90;;;;;;9882184;30;20287;-79
2022/01/24 03:24:53;;;;;;;15.23;8.60;;;2.10;99.90;;;;;;9884667;30;20195;-79
2022/01/24 03:30:18;;;;;;;11.67;7.70;;;2.10;99.90;;;;;;9885897;30;20351;-79
2022/01/24 03:35:44;;;;;;;10.93;7.07;;;2.10;99.90;;;;;;9896579;30;20273;-80
2022/01/24 03:41:08;;;;;;;12.60;7.60;;;2.20;99.90;;;;;;9897234;30;20204;-79
2022/01/24 03:46:48;;;;;;;11.10;7.83;;;2.10;99.90;;;;;;9895085;30;20284;-79
2022/01/24 03:52:16;;;;;;;10.50;7.30;;;2.10;99.90;;;;;;9881356;30;20207;-79
2022/01/24 03:57:42;;;;;;;13.73;7.90;;;2.10;99.90;;;;;;9897199;30;20282;-79
2022/01/24 04:03:07;;;;;;;10.27;7.13;;;2.20;99.90;;;;;;9897709;30;20262;-80
2022/01/24 04:08:33;;;;;;;11.77;6.77;;;2.10;99.90;;;;;;9896803;30;20192;-79
2022/01/24 04:14:10;;;;;;;9.73;6.33;;;2.10;99.90;;;;;;9892771;30;20244;-80
2022/01/24 04:25:36;;;;;;;8.27;5.37;;;2.10;99.90;;;;;;9968429;29;20255;-80
2022/01/24 04:31:00;;;;;;;8.80;5.13;;;2.20;99.90;;;;;;10069176;24;20242;-78
2022/01/24 04:36:41;;;;;;;7.53;4.97;;;2.20;99.90;;;;;;10613062;24;20203;31
2022/01/24 04:42:12;;;;;;;8.55;5.45;;;2.20;99.90;;;;;;10859565;24;2478239;-81
2022/01/24 04:59:11;;;;;;;8.60;5.00;;;2.10;99.90;;;;;;9891546;30;20255;-79
2022/01/24 05:04:36;;;;;;;13.93;6.93;;;2.20;99.90;;;;;;9888311;30;20218;-79
2022/01/24 05:10:10;;;;;;;11.13;5.97;;;2.20;99.90;;;;;;9863999;30;20284;-79
2022/01/24 05:27:27;;;;;;;12.23;7.53;;;2.20;99.90;;;;;;9815869;30;20221;-78
2022/01/24 05:32:51;;;;;;;9.57;6.53;;;2.20;99.90;;;;;;9805171;30;20221;-79
2022/01/24 05:46:11;;;;;;;24.00;11.83;;;2.20;99.90;;;;;;9917657;30;20246;-79
2022/01/24 05:51:36;;;;;;;17.00;9.37;;;2.30;99.90;;;;;;9926765;29;20218;-79
2022/01/24 05:57:01;;;;;;;19.10;9.60;;;2.30;99.90;;;;;;9914192;30;20404;-79
2022/01/24 06:02:26;;;;;;;32.07;14.07;;;2.30;99.90;;;;;;10003864;29;20205;-79
2022/01/24 06:07:51;;;;;;;32.40;15.97;;;2.30;99.90;;;;;;9993983;29;20211;-80
2022/01/24 06:13:17;;;;;;;43.63;20.83;;;2.30;99.90;;;;;;10003600;29;20224;-78
2022/01/24 06:18:42;;;;;;;68.93;32.73;;;2.40;99.90;;;;;;9990657;29;20456;-80
2022/01/24 06:24:08;;;;;;;93.53;39.90;;;2.40;99.90;;;;;;10003686;29;20197;-79
2022/01/24 06:29:32;;;;;;;50.53;22.40;;;2.40;99.90;;;;;;9990998;29;20189;-78
2022/01/24 06:34:58;;;;;;;66.57;33.30;;;2.40;99.90;;;;;;10004598;29;20272;-79
2022/01/24 06:40:22;;;;;;;58.63;33.70;;;2.30;99.90;;;;;;10002803;29;20228;-79
2022/01/24 06:45:47;;;;;;;41.63;21.13;;;2.30;99.90;;;;;;10003859;29;20228;-79
2022/01/24 06:51:13;;;;;;;44.90;25.67;;;2.30;99.90;;;;;;9976174;29;20209;-79
2022/01/24 06:56:38;;;;;;;19.47;13.53;;;2.30;99.90;;;;;;9996451;29;20223;-79
2022/01/24 07:02:04;;;;;;;60.77;26.77;;;2.40;99.90;;;;;;9991522;29;20185;-79
2022/01/24 07:07:30;;;;;;;63.70;26.17;;;2.40;99.90;;;;;;9989844;29;20185;-79
2022/01/24 07:12:54;;;;;;;49.00;24.80;;;2.40;99.90;;;;;;10003909;29;20192;-79
2022/01/24 07:23:52;;;;;;;39.33;21.63;;;2.50;99.90;;;;;;9989368;29;20257;-79
2022/01/24 07:29:18;;;;;;;34.13;20.90;;;2.50;99.90;;;;;;10003574;29;20193;-79
2022/01/24 07:34:43;;;;;;;25.23;15.70;;;2.50;99.90;;;;;;10004866;29;20196;-79
2022/01/24 07:40:09;;;;;;;39.43;17.77;;;2.50;99.90;;;;;;9993756;29;20538;-79
2022/01/24 07:45:34;;;;;;;73.80;26.37;;;2.50;99.90;;;;;;9981941;29;20249;-79
2022/01/24 07:50:58;;;;;;;61.17;23.47;;;2.50;99.90;;;;;;10007765;29;20214;-79
2022/01/24 07:56:23;;;;;;;80.57;33.40;;;2.50;99.90;;;;;;10009757;29;20244;-79
2022/01/24 08:01:50;;;;;;;98.77;44.43;;;2.60;99.90;;;;;;9996027;29;20197;-79
2022/01/24 08:07:17;;;;;;;65.80;30.47;;;2.60;99.90;;;;;;10007902;29;20254;-79
2022/01/24 08:12:44;;;;;;;56.10;26.70;;;2.60;99.90;;;;;;10008234;29;20212;-79
2022/01/24 08:18:10;;;;;;;38.37;21.60;;;2.60;99.90;;;;;;9994288;29;20233;-79
2022/01/24 08:23:35;;;;;;;22.07;13.80;;;2.70;99.90;;;;;;9994203;29;20555;-80
2022/01/24 08:29:01;;;;;;;37.87;24.33;;;2.80;99.90;;;;;;10008390;29;20524;-79
2022/01/24 08:34:26;;;;;;;25.57;19.93;;;2.80;99.90;;;;;;10007454;29;20198;-80
2022/01/24 08:39:52;;;;;;;25.73;19.03;;;2.90;99.90;;;;;;10007659;29;20216;-80
2022/01/24 08:45:50;;;;;;;31.07;22.13;;;2.90;99.90;;;;;;9994726;29;20250;-80
2022/01/24 08:57:13;;;;;;;21.77;14.13;;;3.00;99.90;;;;;;9840975;30;20238;-80
2022/01/24 09:02:38;;;;;;;39.67;21.37;;;3.00;99.90;;;;;;9846098;30;20214;-79
2022/01/24 09:08:05;;;;;;;26.70;15.40;;;3.10;99.90;;;;;;9830306;30;20200;-79
2022/01/24 09:13:32;;;;;;;26.27;17.47;;;3.10;99.90;;;;;;9829187;30;20277;-79
2022/01/24 09:18:58;;;;;;;21.43;13.57;;;3.10;99.90;;;;;;9844593;30;20225;-80
2022/01/24 09:24:23;;;;;;;32.37;19.97;;;3.10;99.90;;;;;;9856591;30;20186;-80
2022/01/24 09:29:48;;;;;;;35.80;15.23;;;3.20;99.90;;;;;;9844712;30;20180;-80
2022/01/24 09:35:17;;;;;;;38.67;15.00;;;3.30;99.90;;;;;;10473935;24;21797;-80
2022/01/24 09:48:42;;;;;;;20.07;12.00;;;3.40;99.90;;;;;;9968308;29;20182;-79
2022/01/24 09:54:09;;;;;;;30.13;17.90;;;3.50;99.90;;;;;;9942951;29;20202;-79
2022/01/24 09:59:35;;;;;;;39.43;20.67;;;3.50;99.90;;;;;;9926488;29;20308;-81
2022/01/24 10:05:18;;;;;;;32.80;18.13;;;3.50;99.90;;;;;;9954259;29;20202;-82
2022/01/24 10:10:55;;;;;;;20.77;12.30;;;3.50;99.90;;;;;;9954650;29;20212;-82
2022/01/24 10:16:32;;;;;;;13.57;8.17;;;3.50;99.90;;;;;;9952757;29;20201;-80
2022/01/24 10:22:04;;;;;;;17.40;7.87;;;3.50;99.90;;;;;;9975773;29;20227;-81
2022/01/24 10:27:29;;;;;;;11.67;7.30;;;3.50;99.90;;;;;;9925923;29;20210;-80
2022/01/24 10:32:56;;;;;;;21.37;12.77;;;3.50;99.90;;;;;;10110324;24;20434;-80
2022/01/24 10:38:44;;;;;;;31.90;14.80;;;3.60;99.90;;;;;;10013961;29;20255;-83
2022/01/24 10:44:11;;;;;;;28.67;15.00;;;3.60;99.90;;;;;;10030915;29;20240;-82
2022/01/24 10:49:53;;;;;;;14.57;9.00;;;3.60;99.90;;;;;;10031138;29;20215;-83
2022/01/24 10:55:24;;;;;;;22.63;13.57;;;3.60;99.90;;;;;;10025385;29;20206;-82
2022/01/24 11:00:50;;;;;;;25.47;13.03;;;3.70;99.90;;;;;;10016047;29;20536;-81
2022/01/24 11:06:28;;;;;;;33.13;16.70;;;3.70;99.90;;;;;;10012525;29;20233;-82
2022/01/24 11:11:59;;;;;;;17.97;10.10;;;3.80;99.90;;;;;;10019408;29;20208;-80
2022/01/24 11:17:30;;;;;;;28.80;13.20;;;3.80;99.90;;;;;;10035792;29;20254;-81
2022/01/24 11:22:59;;;;;;;17.13;9.47;;;3.80;99.90;;;;;;10022805;29;20274;-81
2022/01/24 11:28:25;;;;;;;16.37;10.83;;;3.90;99.90;;;;;;10018995;29;20205;-85
2022/01/24 11:34:08;;;;;;;24.60;14.53;;;3.90;99.90;;;;;;10048376;29;20266;-80
2022/01/24 11:39:36;;;;;;;13.40;8.50;;;4.00;99.90;;;;;;10007618;29;20228;-82
2022/01/24 11:45:05;;;;;;;13.27;9.30;;;4.10;99.90;;;;;;10019388;29;20205;-81
2022/01/24 11:50:37;;;;;;;10.33;7.20;;;4.10;99.90;;;;;;10018396;29;20285;-81
2022/01/24 11:56:26;;;;;;;10.23;6.13;;;4.10;99.90;;;;;;10018293;29;20241;-89
2022/01/24 12:02:10;;;;;;;10.07;7.27;;;4.10;99.90;;;;;;10030793;29;20225;-81
2022/01/24 12:07:43;;;;;;;11.77;7.23;;;4.00;99.90;;;;;;10050445;29;20271;-85
2022/01/24 12:13:20;;;;;;;11.47;7.83;;;4.00;99.90;;;;;;10038628;24;20611;-83
2022/01/24 12:18:48;;;;;;;25.70;11.70;;;4.00;99.90;;;;;;10032475;29;20531;-84
2022/01/24 12:24:15;;;;;;;31.80;13.97;;;4.00;99.90;;;;;;10073462;24;20242;-83
2022/01/24 12:29:46;;;;;;;23.10;10.80;;;4.00;99.90;;;;;;10005442;29;20208;-81
2022/01/24 12:35:29;;;;;;;18.87;9.80;;;4.10;99.90;;;;;;10017834;29;20277;-81
2022/01/24 12:41:16;;;;;;;14.40;8.40;;;4.10;99.90;;;;;;10030384;29;20302;-81
2022/01/24 12:46:42;;;;;;;21.53;12.73;;;4.10;99.90;;;;;;10028677;29;20236;-81
2022/01/24 12:52:09;;;;;;;42.33;18.97;;;4.20;99.90;;;;;;10028570;29;20518;-82
2022/01/24 12:57:39;;;;;;;28.77;12.70;;;4.20;99.90;;;;;;10030852;29;20240;-82
2022/01/24 13:03:04;;;;;;;25.70;11.40;;;4.20;99.90;;;;;;10028485;29;20218;-80
2022/01/24 13:08:30;;;;;;;40.77;16.87;;;4.10;99.90;;;;;;10015308;29;20225;-81
2022/01/24 13:14:14;;;;;;;21.10;10.40;;;4.20;99.90;;;;;;10015057;29;20228;-80
2022/01/24 13:25:42;;;;;;;23.37;11.63;;;4.20;99.90;;;;;;10031749;29;20236;-83
2022/01/24 13:31:09;;;;;;;22.33;12.43;;;4.20;99.90;;;;;;10043167;29;20276;-82
2022/01/24 13:36:35;;;;;;;15.00;8.73;;;4.30;99.90;;;;;;10030128;29;20209;-83
2022/01/24 13:42:00;;;;;;;16.43;8.73;;;4.30;99.90;;;;;;10016874;29;20538;-81
2022/01/24 13:47:25;;;;;;;10.27;6.60;;;4.30;99.90;;;;;;10029295;29;20205;-82
2022/01/24 13:52:51;;;;;;;16.43;8.73;;;4.30;99.90;;;;;;10029619;29;20206;-82
2022/01/24 13:58:27;;;;;;;8.63;6.03;;;4.30;99.90;;;;;;10029602;29;20230;-80
2022/01/24 14:04:07;;;;;;;10.30;5.40;;;4.30;99.90;;;;;;10041585;29;20213;-82
2022/01/24 14:09:37;;;;;;;15.13;9.23;;;4.30;99.90;;;;;;10427203;24;20327;-82
2022/01/24 14:15:17;;;;;;;13.00;6.57;;;4.20;99.90;;;;;;10013604;29;20209;-79
2022/01/24 14:20:43;;;;;;;7.50;4.40;;;4.20;99.90;;;;;;10001016;29;20312;-83
2022/01/24 14:26:46;;;;;;;10.03;6.30;;;4.30;99.90;;;;;;10029430;29;20180;-85
2022/01/24 14:32:12;;;;;;;19.13;11.10;;;4.30;99.90;;;;;;9881792;30;20219;-79
2022/01/24 14:37:54;;;;;;;16.07;8.50;;;4.30;99.90;;;;;;10156167;24;20251;-83
2022/01/24 14:49:15;;;;;;;27.37;15.00;;;4.20;99.90;;;;;;10445118;24;20280;-82
2022/01/24 14:54:44;;;;;;;10.40;6.10;;;4.20;99.90;;;;;;10067482;24;20270;-81
2022/01/24 15:08:01;;;;;;;9.17;5.27;;;4.20;99.90;;;;;;10049108;29;20169;-80
2022/01/24 15:13:32;;;;;;;6.47;4.60;;;4.20;99.90;;;;;;10048642;29;20228;-81
2022/01/24 15:25:19;;;;;;;8.50;4.67;;;4.10;99.90;;;;;;10031873;29;20210;-83
2022/01/24 15:30:34;;;;;;;7.70;4.77;;;4.20;99.90;;;;;;10019254;29;20519;-83
2022/01/24 15:35:59;;;;;;;6.70;5.03;;;4.10;99.90;;;;;;10031866;29;20212;-83
2022/01/24 15:41:28;;;;;;;7.63;5.80;;;4.20;99.90;;;;;;10008776;29;20279;-82
2022/01/24 15:47:04;;;;;;;7.43;4.23;;;4.20;99.90;;;;;;10018339;29;20201;-82
2022/01/24 15:52:31;;;;;;;5.97;4.10;;;4.20;99.90;;;;;;10006247;29;20212;-80
2022/01/24 15:57:57;;;;;;;7.40;4.60;;;4.10;99.90;;;;;;9988430;29;20249;-80
2022/01/24 16:03:23;;;;;;;3.77;3.00;;;4.10;99.90;;;;;;9995382;29;20205;-80
2022/01/24 16:08:48;;;;;;;23.87;12.90;;;4.10;99.90;;;;;;10359923;24;20248;-80
2022/01/24 16:14:16;;;;;;;6.03;4.00;;;4.10;99.90;;;;;;10017793;29;20209;-79
2022/01/24 16:19:46;;;;;;;12.97;7.33;;;4.10;99.90;;;;;;10029981;29;20224;-80
2022/01/24 16:31:13;;;;;;;11.60;7.37;;;4.00;99.90;;;;;;10046929;29;20268;-79
2022/01/24 16:36:38;;;;;;;7.27;4.57;;;4.00;99.90;;;;;;10007942;29;20200;-80
2022/01/24 16:42:11;;;;;;;13.60;7.93;;;4.00;99.90;;;;;;10032363;29;20452;-79
2022/01/24 16:47:35;;;;;;;12.83;8.77;;;4.00;99.90;;;;;;10029761;29;20224;-79
2022/01/24 16:53:00;;;;;;;6.60;4.13;;;4.00;99.90;;;;;;10028197;29;20221;-80
2022/01/24 16:58:29;;;;;;;6.87;3.87;;;4.00;99.90;;;;;;10028494;29;20228;-79
2022/01/24 17:03:57;;;;;;;4.03;3.40;;;4.00;99.90;;;;;;10031745;29;20249;-79
2022/01/24 17:09:22;;;;;;;6.10;3.53;;;4.00;99.90;;;;;;10027747;29;20251;-79
2022/01/24 17:14:52;;;;;;;6.60;2.83;;;4.00;99.90;;;;;;10694807;24;20244;-80
2022/01/24 17:20:22;;;;;;;4.10;2.70;;;4.10;99.90;;;;;;10667192;24;20465;-79
2022/01/24 17:25:52;;;;;;;3.50;2.63;;;4.00;99.90;;;;;;10003940;29;20227;-80
2022/01/24 17:31:16;;;;;;;3.63;2.40;;;3.90;99.90;;;;;;10017656;29;20202;-80
2022/01/24 17:36:50;;;;;;;4.30;2.93;;;3.90;99.90;;;;;;10002353;29;20229;-80
2022/01/24 17:42:15;;;;;;;5.07;2.80;;;4.00;99.90;;;;;;10155256;24;20276;-81
2022/01/24 17:47:44;;;;;;;3.87;2.27;;;3.90;99.90;;;;;;10070788;24;20305;-82
2022/01/24 17:53:09;;;;;;;7.90;3.33;;;3.90;99.90;;;;;;10030139;29;20185;-79
2022/01/24 17:58:34;;;;;;;5.40;3.30;;;3.90;99.90;;;;;;10042987;29;20275;-80
2022/01/24 18:11:46;;;;;;;5.20;3.50;;;3.90;99.90;;;;;;10180022;24;20247;-80
2022/01/24 18:25:20;;;;;;;5.83;4.13;;;3.90;99.90;;;;;;10042839;29;20186;-79
2022/01/24 18:30:44;;;;;;;6.97;3.50;;;3.80;99.90;;;;;;10054900;24;20219;-80
2022/01/24 18:36:14;;;;;;;7.10;4.10;;;3.80;99.90;;;;;;9976137;29;20228;-82
2022/01/24 18:49:14;;;;;;;9.87;4.73;;;3.80;99.90;;;;;;10043130;29;20472;-81
2022/01/24 18:54:39;;;;;;;8.70;4.10;;;3.80;99.90;;;;;;10025328;29;20572;-79
2022/01/24 19:00:07;;;;;;;3.77;2.50;;;3.80;99.90;;;;;;10029150;29;20217;-81
2022/01/24 19:05:38;;;;;;;2.90;2.10;;;3.80;99.90;;;;;;10028987;29;20185;-78
2022/01/24 19:11:04;;;;;;;4.40;2.70;;;3.70;99.90;;;;;;10012511;29;20215;-79
2022/01/24 19:16:30;;;;;;;3.40;1.87;;;3.70;99.90;;;;;;10041318;29;20178;-80
2022/01/24 19:27:41;;;;;;;4.33;2.63;;;3.70;99.90;;;;;;10013711;29;20201;-81
2022/01/24 19:33:08;;;;;;;2.77;1.90;;;3.70;99.90;;;;;;10035550;29;20210;-80
2022/01/24 19:38:34;;;;;;;5.47;3.30;;;3.80;99.90;;;;;;10048531;29;20222;-81
2022/01/24 19:43:59;;;;;;;3.33;2.33;;;3.80;99.90;;;;;;10024294;29;20240;-82
2022/01/24 19:49:24;;;;;;;3.30;2.40;;;3.70;99.90;;;;;;10067498;24;20275;-79
2022/01/24 19:54:54;;;;;;;4.60;2.90;;;3.80;99.90;;;;;;10018087;29;20213;-78
2022/01/24 20:00:19;;;;;;;8.60;4.40;;;3.70;99.90;;;;;;10046903;29;20257;-78
2022/01/24 20:05:47;;;;;;;9.37;5.67;;;3.70;99.90;;;;;;10053322;29;20215;-79
2022/01/24 20:11:12;;;;;;;13.07;7.27;;;3.70;99.90;;;;;;10033288;29;20184;-78
2022/01/24 20:16:37;;;;;;;13.20;7.47;;;3.70;99.90;;;;;;10030078;29;20204;-79
2022/01/24 20:22:03;;;;;;;10.73;7.27;;;3.70;99.90;;;;;;10029757;29;20224;-79
2022/01/24 20:27:27;;;;;;;9.53;6.70;;;3.70;99.90;;;;;;10029825;29;20220;-79
2022/01/24 20:32:53;;;;;;;13.63;6.83;;;3.70;99.90;;;;;;10029559;29;20201;-81
2022/01/24 20:38:18;;;;;;;13.73;6.53;;;3.80;99.90;;;;;;10032780;29;20185;-81
2022/01/24 20:43:43;;;;;;;11.83;6.67;;;3.70;99.90;;;;;;10032229;29;20249;-79
2022/01/24 20:49:08;;;;;;;9.23;5.20;;;3.70;99.90;;;;;;10028688;29;20318;-81
2022/01/24 20:54:33;;;;;;;11.47;5.50;;;3.70;99.90;;;;;;10044951;29;20226;-80
2022/01/24 20:59:58;;;;;;;14.73;7.10;;;3.80;99.90;;;;;;10045508;29;20204;-80
2022/01/24 21:05:40;;;;;;;7.97;5.53;;;3.70;99.90;;;;;;10044757;29;20203;-81
2022/01/24 21:11:12;;;;;;;10.43;5.80;;;3.70;99.90;;;;;;10044497;29;20211;-80
2022/01/24 21:22:36;;;;;;;9.67;5.97;;;3.70;99.90;;;;;;9856391;30;20302;-80
2022/01/24 21:28:01;;;;;;;8.03;5.20;;;3.70;99.90;;;;;;9856467;30;20187;-81
2022/01/24 21:33:39;;;;;;;7.57;5.40;;;3.70;99.90;;;;;;9830322;30;20236;-80
2022/01/24 21:39:07;;;;;;;11.43;5.53;;;3.60;99.90;;;;;;9857477;30;20224;-79
2022/01/24 21:44:31;;;;;;;8.07;5.60;;;3.70;99.90;;;;;;9856354;30;20203;-80
2022/01/24 21:49:57;;;;;;;7.17;5.97;;;3.60;99.90;;;;;;9864193;30;20203;-78
2022/01/24 21:55:33;;;;;;;9.80;6.53;;;3.70;99.90;;;;;;9849837;30;20192;-80
2022/01/24 22:01:00;;;;;;;10.37;6.47;;;3.60;99.90;;;;;;9864423;30;20242;-80
2022/01/24 22:06:24;;;;;;;10.53;7.43;;;3.60;99.90;;;;;;9863962;30;20195;-78
2022/01/24 22:11:49;;;;;;;10.53;7.17;;;3.60;99.90;;;;;;9850048;30;20203;-79
2022/01/24 22:17:18;;;;;;;12.20;7.53;;;3.60;99.90;;;;;;10122930;24;20231;-78
2022/01/24 22:40:35;;;;;;;12.27;7.77;;;3.60;99.90;;;;;;10372336;24;20253;-79
2022/01/24 23:11:35;;;;;;;17.20;9.40;;;3.60;99.90;;;;;;10049239;29;20244;-79
2022/01/24 23:29:07;;;;;;;12.80;8.27;;;3.60;99.90;;;;;;10184017;24;20244;-80
2022/01/24 23:52:17;;;;;;;11.77;6.93;;;3.50;99.90;;;;;;10694789;24;20315;-78
2022/01/24 23:57:47;;;;;;;11.93;7.43;;;3.60;99.90;;;;;;10030902;29;20276;-78
